Time,TemperatureF,DewpointF,PressureIn,WindDirection,WindDirectionDegrees,WindSpeedMPH,WindSpeedGustMPH,Humidity,HourlyPrecipIn,Conditions,Clouds,dailyrainin,SoftwareType,DateUTC
2013-02-17 00:00:00,28.2,19.4,30.08,NNW,342,1.3,2.6,69,0.00,,CLR,0.05,VWS V14.01,2013-02-17 05:00:00,
2013-02-17 00:13:00,27.8,19.0,30.08,NNW,342,0.0,3.9,69,0.00,,CLR,0.00,VWS V14.01,2013-02-17 05:13:00,
2013-02-17 00:28:00,27.6,19.1,30.09,NNW,342,0.0,5.2,70,0.00,,CLR,0.00,VWS V14.01,2013-02-17 05:28:00,
2013-02-17 00:43:00,26.9,18.8,30.09,NNW,342,1.3,2.6,71,0.00,,CLR,0.00,VWS V14.01,2013-02-17 05:43:00,
2013-02-17 00:58:00,26.7,18.9,30.09,NNW,342,0.0,2.6,72,0.00,,CLR,0.00,VWS V14.01,2013-02-17 05:58:00,
2013-02-17 01:13:00,26.1,18.3,30.10,NNW,342,1.3,2.6,72,0.00,,CLR,0.00,VWS V14.01,2013-02-17 06:13:00,
2013-02-17 01:28:00,25.8,18.7,30.10,NNW,342,0.0,1.3,74,0.00,,CLR,0.00,VWS V14.01,2013-02-17 06:28:00,
2013-02-17 01:43:00,25.4,18.0,30.09,NNW,342,0.0,2.6,73,0.00,,CLR,0.00,VWS V14.01,2013-02-17 06:43:00,
2013-02-17 01:58:00,26.0,16.6,30.10,NNW,342,1.3,6.5,67,0.00,,CLR,0.00,VWS V14.01,2013-02-17 06:58:00,
2013-02-17 02:13:00,26.0,16.9,30.10,NNW,342,0.0,3.9,68,0.00,,CLR,0.00,VWS V14.01,2013-02-17 07:13:00,
2013-02-17 02:28:00,25.7,15.9,30.10,NNW,342,1.3,5.2,66,0.00,,CLR,0.00,VWS V14.01,2013-02-17 07:28:00,
2013-02-17 02:43:00,25.9,15.4,30.10,NNW,342,0.0,3.9,64,0.00,,CLR,0.00,VWS V14.01,2013-02-17 07:43:00,
2013-02-17 02:58:00,25.8,13.9,30.11,NNW,342,2.6,6.5,60,0.00,,CLR,0.00,VWS V14.01,2013-02-17 07:58:00,
2013-02-17 03:13:00,25.3,15.2,30.11,NNW,342,0.0,6.5,65,0.00,,CLR,0.00,VWS V14.01,2013-02-17 08:13:00,
2013-02-17 03:28:00,25.9,12.8,30.11,NNW,342,0.0,6.5,57,0.00,,CLR,0.00,VWS V14.01,2013-02-17 08:28:00,
2013-02-17 03:43:00,26.4,11.2,30.12,NNW,342,9.1,9.1,52,0.00,,CLR,0.00,VWS V14.01,2013-02-17 08:43:00,
2013-02-17 03:58:00,27.0,10.4,30.12,NNW,342,2.6,14.3,49,0.00,,CLR,0.00,VWS V14.01,2013-02-17 08:58:00,
2013-02-17 04:13:00,26.4,10.7,30.13,NNW,342,0.0,3.9,51,0.00,,CLR,0.00,VWS V14.01,2013-02-17 09:13:00,
2013-02-17 04:28:00,25.6,12.5,30.13,NNW,342,0.0,3.9,57,0.00,,CLR,0.00,VWS V14.01,2013-02-17 09:28:00,
2013-02-17 04:43:00,25.3,10.6,30.14,NNW,342,0.0,5.2,53,0.00,,CLR,0.00,VWS V14.01,2013-02-17 09:43:00,
2013-02-17 04:58:00,24.3,11.7,30.14,NNW,342,0.0,2.6,58,0.00,,CLR,0.00,VWS V14.01,2013-02-17 09:58:00,
2013-02-17 05:13:00,23.6,12.5,30.14,NNW,342,0.0,3.9,62,0.00,,CLR,0.00,VWS V14.01,2013-02-17 10:13:00,
2013-02-17 05:28:00,22.5,11.8,30.15,NNW,342,0.0,1.3,63,0.00,,CLR,0.00,VWS V14.01,2013-02-17 10:28:00,
2013-02-17 05:43:00,22.4,11.0,30.16,NNW,342,1.3,1.3,61,0.00,,CLR,0.00,VWS V14.01,2013-02-17 10:43:00,
2013-02-17 05:58:00,23.0,11.6,30.16,NNW,342,2.6,2.6,61,0.00,,CLR,0.00,VWS V14.01,2013-02-17 10:58:00,
2013-02-17 06:13:00,23.7,10.7,30.17,NNW,342,0.0,3.9,57,0.00,,CLR,0.00,VWS V14.01,2013-02-17 11:13:00,
2013-02-17 06:28:00,24.1,11.9,30.17,NNW,342,0.0,3.9,59,0.00,,CLR,0.00,VWS V14.01,2013-02-17 11:28:00,
2013-02-17 06:43:00,23.7,11.5,30.17,NNW,342,0.0,5.2,59,0.00,,CLR,0.00,VWS V14.01,2013-02-17 11:43:00,
2013-02-17 06:58:00,23.4,11.6,30.18,NNW,342,3.9,6.5,60,0.00,,CLR,0.00,VWS V14.01,2013-02-17 11:58:00,
2013-02-17 07:13:00,24.1,12.6,30.18,NNW,342,1.3,6.5,61,0.00,,CLR,0.00,VWS V14.01,2013-02-17 12:13:00,
2013-02-17 07:28:00,24.3,12.1,30.19,NNW,342,1.3,5.2,59,0.00,,CLR,0.00,VWS V14.01,2013-02-17 12:28:00,
2013-02-17 07:43:00,25.2,11.3,30.19,NNW,342,0.0,6.5,55,0.00,,CLR,0.00,VWS V14.01,2013-02-17 12:43:00,
2013-02-17 07:58:00,26.2,11.4,30.20,NNW,342,3.9,6.5,53,0.00,,CLR,0.00,VWS V14.01,2013-02-17 12:58:00,
2013-02-17 08:13:00,27.2,11.5,30.20,NNW,342,0.0,3.9,51,0.00,,CLR,0.00,VWS V14.01,2013-02-17 13:13:00,
2013-02-17 08:28:00,28.4,11.7,30.20,NNW,342,2.6,9.1,49,0.00,,CLR,0.00,VWS V14.01,2013-02-17 13:28:00,
2013-02-17 08:43:00,29.7,11.9,30.21,NNW,342,3.9,7.8,47,0.00,,CLR,0.00,VWS V14.01,2013-02-17 13:43:00,
2013-02-17 08:58:00,30.5,11.2,30.22,NNW,342,3.9,7.8,44,0.00,,CLR,0.00,VWS V14.01,2013-02-17 13:58:00,
2013-02-17 09:13:00,30.9,12.1,30.22,WNW,295,6.5,10.4,45,0.00,,CLR,0.00,VWS V14.01,2013-02-17 14:13:00,
2013-02-17 09:28:00,31.7,11.8,30.22,WSW,253,6.5,10.4,43,0.00,,CLR,0.00,VWS V14.01,2013-02-17 14:28:00,
2013-02-17 09:43:00,31.9,11.4,30.22,SW,234,1.3,10.4,42,0.00,,CLR,0.00,VWS V14.01,2013-02-17 14:43:00,
2013-02-17 09:58:00,32.7,11.1,30.22,WSW,254,5.2,7.8,40,0.00,,CLR,0.00,VWS V14.01,2013-02-17 14:58:00,
2013-02-17 10:13:00,33.6,11.3,30.23,South,186,5.2,9.1,39,0.00,,CLR,0.00,VWS V14.01,2013-02-17 15:13:00,
2013-02-17 10:28:00,33.7,10.8,30.23,WSW,246,2.6,14.3,38,0.00,,CLR,0.00,VWS V14.01,2013-02-17 15:28:00,
2013-02-17 10:43:00,34.4,11.4,30.23,WSW,238,1.3,10.4,38,0.00,,CLR,0.00,VWS V14.01,2013-02-17 15:43:00,
2013-02-17 10:58:00,34.6,11.0,30.23,NNW,329,1.3,11.7,37,0.00,,CLR,0.00,VWS V14.01,2013-02-17 15:58:00,
2013-02-17 11:13:00,36.0,11.0,30.23,WNW,298,9.1,13.0,35,0.00,,CLR,0.00,VWS V14.01,2013-02-17 16:13:00,
2013-02-17 11:28:00,36.4,12.0,30.23,WNW,288,3.9,18.2,36,0.00,,CLR,0.00,VWS V14.01,2013-02-17 16:28:00,
2013-02-17 11:43:00,37.3,12.2,30.23,WSW,256,9.1,13.0,35,0.01,,CLR,0.01,VWS V14.01,2013-02-17 16:43:00,
2013-02-17 11:58:00,38.1,13.5,30.23,SSW,198,2.6,14.3,36,0.01,,CLR,0.01,VWS V14.01,2013-02-17 16:58:00,
2013-02-17 12:13:00,39.0,13.7,30.22,WSW,242,2.6,11.7,35,0.01,,CLR,0.01,VWS V14.01,2013-02-17 17:13:00,
2013-02-17 12:28:00,39.2,11.8,30.22,South,171,2.6,9.1,32,0.02,,CLR,0.02,VWS V14.01,2013-02-17 17:28:00,
2013-02-17 12:43:00,40.4,12.2,30.21,West,277,2.6,10.4,31,0.02,,CLR,0.02,VWS V14.01,2013-02-17 17:43:00,
2013-02-17 12:58:00,42.4,13.9,30.20,NW,325,6.5,10.4,31,0.02,,CLR,0.03,VWS V14.01,2013-02-17 17:58:00,
2013-02-17 13:13:00,42.4,12.4,30.20,WSW,244,3.9,9.1,29,0.02,,CLR,0.03,VWS V14.01,2013-02-17 18:13:00,
2013-02-17 13:28:00,42.2,12.2,30.19,SSE,163,0.0,9.1,29,0.03,,CLR,0.04,VWS V14.01,2013-02-17 18:28:00,
2013-02-17 13:43:00,42.8,12.0,30.19,SSW,211,5.2,14.3,28,0.02,,CLR,0.04,VWS V14.01,2013-02-17 18:43:00,
2013-02-17 13:58:00,42.3,10.7,30.18,SE,145,6.5,11.7,27,0.03,,CLR,0.05,VWS V14.01,2013-02-17 18:58:00,
2013-02-17 14:13:00,44.2,13.2,30.18,NNE,22,3.9,10.4,28,0.02,,CLR,0.05,VWS V14.01,2013-02-17 19:13:00,
2013-02-17 14:28:00,45.9,12.1,30.18,WSW,243,5.2,7.8,25,0.03,,CLR,0.06,VWS V14.01,2013-02-17 19:28:00,
2013-02-17 14:43:00,45.1,11.4,30.17,WSW,238,6.5,11.7,25,0.02,,CLR,0.06,VWS V14.01,2013-02-17 19:43:00,
2013-02-17 14:58:00,45.8,12.0,30.17,West,265,3.9,19.5,25,0.03,,CLR,0.07,VWS V14.01,2013-02-17 19:58:00,
2013-02-17 15:13:00,46.6,11.8,30.17,WSW,240,3.9,11.7,24,0.02,,CLR,0.07,VWS V14.01,2013-02-17 20:13:00,
2013-02-17 15:28:00,46.6,10.8,30.17,North,349,5.2,9.1,23,0.02,,CLR,0.07,VWS V14.01,2013-02-17 20:28:00,
2013-02-17 15:43:00,47.1,11.2,30.17,NW,316,6.5,14.3,23,0.02,,CLR,0.08,VWS V14.01,2013-02-17 20:43:00,
2013-02-17 15:58:00,47.3,10.4,30.18,NNW,340,2.6,11.7,22,0.02,,CLR,0.08,VWS V14.01,2013-02-17 20:58:00,
2013-02-17 16:13:00,46.4,9.6,30.18,West,268,6.5,13.0,22,0.01,,CLR,0.08,VWS V14.01,2013-02-17 21:13:00,
2013-02-17 16:28:00,46.4,9.6,30.18,NNW,342,1.3,13.0,22,0.01,,CLR,0.08,VWS V14.01,2013-02-17 21:28:00,
2013-02-17 16:43:00,46.8,8.9,30.19,NNE,22,6.5,13.0,21,0.01,,CLR,0.08,VWS V14.01,2013-02-17 21:43:00,
2013-02-17 16:58:00,45.9,9.2,30.19,West,279,5.2,13.0,22,0.01,,CLR,0.09,VWS V14.01,2013-02-17 21:58:00,
2013-02-17 17:13:00,46.0,8.3,30.19,West,263,3.9,10.4,21,0.01,,CLR,0.09,VWS V14.01,2013-02-17 22:13:00,
2013-02-17 17:28:00,45.5,9.9,30.20,WSW,255,5.2,10.4,23,0.01,,CLR,0.09,VWS V14.01,2013-02-17 22:28:00,
2013-02-17 17:43:00,44.7,8.2,30.21,WSW,240,6.5,7.8,22,0.01,,CLR,0.09,VWS V14.01,2013-02-17 22:43:00,
2013-02-17 17:58:00,43.0,9.6,30.21,WSW,241,1.3,9.1,25,0.01,,CLR,0.09,VWS V14.01,2013-02-17 22:58:00,
2013-02-17 18:13:00,42.0,12.1,30.22,WNW,293,5.2,13.0,29,0.00,,CLR,0.09,VWS V14.01,2013-02-17 23:13:00,
2013-02-17 18:28:00,41.1,12.0,30.23,West,261,3.9,15.6,30,0.00,,CLR,0.09,VWS V14.01,2013-02-17 23:28:00,
2013-02-17 18:43:00,40.5,12.3,30.24,NNW,344,0.0,11.7,31,0.00,,CLR,0.09,VWS V14.01,2013-02-17 23:43:00,
2013-02-17 18:58:00,39.9,12.4,30.25,WNW,297,3.9,10.4,32,0.00,,CLR,0.09,VWS V14.01,2013-02-17 23:58:00,
2013-02-17 19:13:00,39.4,12.7,30.25,West,267,1.3,7.8,33,0.00,,CLR,0.09,VWS V14.01,2013-02-18 00:13:00,
2013-02-17 19:28:00,38.3,13.1,30.26,WSW,248,0.0,1.3,35,0.00,,CLR,0.09,VWS V14.01,2013-02-18 00:28:00,
2013-02-17 19:43:00,37.3,13.4,30.26,WSW,250,0.0,5.2,37,0.00,,CLR,0.09,VWS V14.01,2013-02-18 00:43:00,
2013-02-17 19:58:00,36.3,16.5,30.27,NNW,343,0.0,2.6,44,0.00,,CLR,0.09,VWS V14.01,2013-02-18 00:58:00,
2013-02-17 20:13:00,35.0,15.3,30.27,NNW,343,0.0,1.3,44,0.00,,CLR,0.09,VWS V14.01,2013-02-18 01:13:00,
2013-02-17 20:28:00,33.7,13.1,30.27,NNW,343,0.0,0.0,42,0.00,,CLR,0.09,VWS V14.01,2013-02-18 01:28:00,
2013-02-17 20:43:00,32.8,13.8,30.28,NNW,343,0.0,0.0,45,0.00,,CLR,0.09,VWS V14.01,2013-02-18 01:43:00,
2013-02-17 20:58:00,32.6,12.6,30.28,NNW,343,0.0,1.3,43,0.00,,CLR,0.09,VWS V14.01,2013-02-18 01:58:00,
2013-02-17 21:13:00,31.8,16.2,30.29,NNW,343,0.0,1.3,52,0.00,,CLR,0.09,VWS V14.01,2013-02-18 02:13:00,
2013-02-17 21:28:00,31.0,13.1,30.29,NNW,343,0.0,1.3,47,0.00,,CLR,0.09,VWS V14.01,2013-02-18 02:28:00,
2013-02-17 21:43:00,30.5,14.5,30.30,NNW,343,0.0,1.3,51,0.00,,CLR,0.09,VWS V14.01,2013-02-18 02:43:00,
2013-02-17 21:58:00,29.9,14.9,30.30,NNW,343,0.0,0.0,53,0.00,,CLR,0.09,VWS V14.01,2013-02-18 02:58:00,
2013-02-17 22:13:00,29.6,14.1,30.31,NNW,343,0.0,1.3,52,0.00,,CLR,0.09,VWS V14.01,2013-02-18 03:13:00,
2013-02-17 22:28:00,31.5,15.9,30.31,WNW,286,0.0,5.2,52,0.00,,CLR,0.09,VWS V14.01,2013-02-18 03:28:00,
2013-02-17 22:43:00,32.4,18.9,30.31,NNW,340,0.0,3.9,57,0.00,,CLR,0.09,VWS V14.01,2013-02-18 03:43:00,
2013-02-17 22:58:00,33.0,17.3,30.30,SW,229,0.0,5.2,52,0.00,,CLR,0.00,VWS V14.01,2013-02-18 03:58:00,
2013-02-17 23:13:00,34.7,16.0,30.31,WSW,242,3.9,7.8,46,0.00,,CLR,0.00,VWS V14.01,2013-02-18 04:13:00,
2013-02-17 23:28:00,35.2,16.0,30.31,WNW,287,0.0,5.2,45,0.00,,CLR,0.00,VWS V14.01,2013-02-18 04:28:00,
2013-02-17 23:43:00,33.3,18.9,30.30,WNW,287,0.0,2.6,55,0.00,,CLR,0.00,VWS V14.01,2013-02-18 04:43:00,
2013-02-17 23:58:00,31.5,17.6,30.30,WNW,287,1.3,2.6,56,0.00,,CLR,0.00,VWS V14.01,2013-02-18 04:58:00,